Terminal Aerodrome Forecast
Issued by NWS Atlanta, GA

Home | Current Version | Previous Version | Text Only | Print | Product List | Glossary On
Versions: 1 2 3 4 5 6 7 8 9 10 11 12 13 14 15 16 17 18 19 20 21 22
000
FTUS42 KFFC 160900 AAB
TAFCSG
TAF AMD
KCSG 160902Z 1609/1706 VRB03KT P6SM SCT007 BKN060
     FM161000 VRB03KT 6SM BR BKN007
     FM161400 28005KT P6SM VCSH BKN015
     FM161600 32006KT P6SM VCSH SCT025 BKN040
      TEMPO 1616/1620 5SM -TSRA BR BKN025CB
     FM162100 33008KT P6SM SCT050 BKN100
     FM170200 34004KT P6SM SCT120 BKN250=

USA.gov is the U.S. government's official web portal to all federal, state and local government web resources and services.